sensor_id;sensor_type;location;lat;lon;timestamp;temperature;humidity
9987;DHT22;5033;46.310;11.214;2024-03-25T00:01:04;5.60;99.90
9987;DHT22;5033;46.310;11.214;2024-03-25T00:03:30;5.60;99.90
9987;DHT22;5033;46.310;11.214;2024-03-25T00:05:58;5.70;99.90
9987;DHT22;5033;46.310;11.214;2024-03-25T00:08:24;5.70;99.90
9987;DHT22;5033;46.310;11.214;2024-03-25T00:10:51;5.70;99.90
9987;DHT22;5033;46.310;11.214;2024-03-25T00:13:17;5.70;99.90
9987;DHT22;5033;46.310;11.214;2024-03-25T00:15:45;5.70;99.90
9987;DHT22;5033;46.310;11.214;2024-03-25T00:18:11;5.60;99.90
9987;DHT22;5033;46.310;11.214;2024-03-25T00:20:38;5.60;99.90
9987;DHT22;5033;46.310;11.214;2024-03-25T00:23:06;5.60;99.90
9987;DHT22;5033;46.310;11.214;2024-03-25T00:25:33;5.50;99.90
9987;DHT22;5033;46.310;11.214;2024-03-25T00:27:59;5.50;99.90
9987;DHT22;5033;46.310;11.214;2024-03-25T00:30:26;5.50;99.90
9987;DHT22;5033;46.310;11.214;2024-03-25T00:32:52;5.50;99.90
9987;DHT22;5033;46.310;11.214;2024-03-25T00:35:19;5.50;99.90
9987;DHT22;5033;46.310;11.214;2024-03-25T00:37:45;5.50;99.90
9987;DHT22;5033;46.310;11.214;2024-03-25T00:40:13;5.40;99.90
9987;DHT22;5033;46.310;11.214;2024-03-25T00:42:39;5.50;99.90
9987;DHT22;5033;46.310;11.214;2024-03-25T00:45:07;5.40;99.90
9987;DHT22;5033;46.310;11.214;2024-03-25T00:47:33;5.40;99.90
9987;DHT22;5033;46.310;11.214;2024-03-25T00:50:00;5.40;99.90
9987;DHT22;5033;46.310;11.214;2024-03-25T00:52:26;5.40;99.90
9987;DHT22;5033;46.310;11.214;2024-03-25T00:54:53;5.40;99.90
9987;DHT22;5033;46.310;11.214;2024-03-25T00:57:20;5.40;99.90
9987;DHT22;5033;46.310;11.214;2024-03-25T00:59:47;5.40;99.90
9987;DHT22;5033;46.310;11.214;2024-03-25T01:02:13;5.30;99.90
9987;DHT22;5033;46.310;11.214;2024-03-25T01:04:40;5.30;99.90
9987;DHT22;5033;46.310;11.214;2024-03-25T01:07:06;5.20;99.90
9987;DHT22;5033;46.310;11.214;2024-03-25T01:09:33;5.20;99.90
9987;DHT22;5033;46.310;11.214;2024-03-25T01:11:59;5.20;99.90
9987;DHT22;5033;46.310;11.214;2024-03-25T01:14:27;5.20;99.90
9987;DHT22;5033;46.310;11.214;2024-03-25T01:16:53;5.30;99.90
9987;DHT22;5033;46.310;11.214;2024-03-25T01:19:21;5.20;99.90
9987;DHT22;5033;46.310;11.214;2024-03-25T01:21:47;5.30;99.90
9987;DHT22;5033;46.310;11.214;2024-03-25T01:24:14;5.20;99.90
9987;DHT22;5033;46.310;11.214;2024-03-25T01:26:40;5.10;99.90
9987;DHT22;5033;46.310;11.214;2024-03-25T01:29:07;5.10;99.90
9987;DHT22;5033;46.310;11.214;2024-03-25T01:31:34;5.00;99.90
9987;DHT22;5033;46.310;11.214;2024-03-25T01:34:01;5.00;99.90
9987;DHT22;5033;46.310;11.214;2024-03-25T01:36:27;4.90;99.90
9987;DHT22;5033;46.310;11.214;2024-03-25T01:38:54;4.90;99.90
9987;DHT22;5033;46.310;11.214;2024-03-25T01:41:22;4.90;99.90
9987;DHT22;5033;46.310;11.214;2024-03-25T01:43:49;4.80;99.90
9987;DHT22;5033;46.310;11.214;2024-03-25T01:46:16;4.70;99.90
9987;DHT22;5033;46.310;11.214;2024-03-25T01:48:45;4.70;99.90
9987;DHT22;5033;46.310;11.214;2024-03-25T01:51:13;4.70;99.90
9987;DHT22;5033;46.310;11.214;2024-03-25T01:53:42;4.80;99.90
9987;DHT22;5033;46.310;11.214;2024-03-25T01:56:08;4.70;99.90
9987;DHT22;5033;46.310;11.214;2024-03-25T01:58:35;4.70;99.90
9987;DHT22;5033;46.310;11.214;2024-03-25T02:01:03;4.70;99.90
9987;DHT22;5033;46.310;11.214;2024-03-25T02:03:31;4.70;99.90
9987;DHT22;5033;46.310;11.214;2024-03-25T02:06:02;4.70;99.90
9987;DHT22;5033;46.310;11.214;2024-03-25T02:08:29;4.70;99.90
9987;DHT22;5033;46.310;11.214;2024-03-25T02:10:56;4.60;99.90
9987;DHT22;5033;46.310;11.214;2024-03-25T02:13:24;4.60;99.90
9987;DHT22;5033;46.310;11.214;2024-03-25T02:15:50;4.60;99.90
9987;DHT22;5033;46.310;11.214;2024-03-25T02:18:18;4.60;99.90
9987;DHT22;5033;46.310;11.214;2024-03-25T02:20:45;4.50;99.90
9987;DHT22;5033;46.310;11.214;2024-03-25T02:23:14;4.50;99.90
9987;DHT22;5033;46.310;11.214;2024-03-25T02:25:42;4.50;99.90
9987;DHT22;5033;46.310;11.214;2024-03-25T02:28:10;4.50;99.90
9987;DHT22;5033;46.310;11.214;2024-03-25T02:30:36;4.50;99.90
9987;DHT22;5033;46.310;11.214;2024-03-25T02:33:04;4.40;99.90
9987;DHT22;5033;46.310;11.214;2024-03-25T02:35:30;4.40;99.90
9987;DHT22;5033;46.310;11.214;2024-03-25T02:37:57;4.40;99.90
9987;DHT22;5033;46.310;11.214;2024-03-25T02:40:23;4.40;99.90
9987;DHT22;5033;46.310;11.214;2024-03-25T02:42:52;4.40;99.90
9987;DHT22;5033;46.310;11.214;2024-03-25T02:45:19;4.40;99.90
9987;DHT22;5033;46.310;11.214;2024-03-25T02:47:46;4.40;99.90
9987;DHT22;5033;46.310;11.214;2024-03-25T02:50:12;4.50;99.90
9987;DHT22;5033;46.310;11.214;2024-03-25T02:52:39;4.50;99.90
9987;DHT22;5033;46.310;11.214;2024-03-25T02:55:06;4.50;99.90
9987;DHT22;5033;46.310;11.214;2024-03-25T02:57:33;4.50;99.90
9987;DHT22;5033;46.310;11.214;2024-03-25T02:59:59;4.50;99.90
9987;DHT22;5033;46.310;11.214;2024-03-25T03:02:27;4.50;99.90
9987;DHT22;5033;46.310;11.214;2024-03-25T03:04:53;4.50;99.90
9987;DHT22;5033;46.310;11.214;2024-03-25T03:07:20;4.50;99.90
9987;DHT22;5033;46.310;11.214;2024-03-25T03:09:46;4.50;99.90
9987;DHT22;5033;46.310;11.214;2024-03-25T03:12:12;4.50;99.90
9987;DHT22;5033;46.310;11.214;2024-03-25T03:14:38;4.50;99.90
9987;DHT22;5033;46.310;11.214;2024-03-25T03:17:05;4.40;99.90
9987;DHT22;5033;46.310;11.214;2024-03-25T03:19:33;4.40;99.90
9987;DHT22;5033;46.310;11.214;2024-03-25T03:21:59;4.30;99.90
9987;DHT22;5033;46.310;11.214;2024-03-25T03:24:25;4.30;99.90
9987;DHT22;5033;46.310;11.214;2024-03-25T03:26:53;4.30;99.90
9987;DHT22;5033;46.310;11.214;2024-03-25T03:29:19;4.20;99.90
9987;DHT22;5033;46.310;11.214;2024-03-25T03:31:46;4.20;99.90
9987;DHT22;5033;46.310;11.214;2024-03-25T03:34:12;4.20;99.90
9987;DHT22;5033;46.310;11.214;2024-03-25T03:36:40;4.20;99.90
9987;DHT22;5033;46.310;11.214;2024-03-25T03:39:06;4.10;99.90
9987;DHT22;5033;46.310;11.214;2024-03-25T03:41:34;4.00;99.90
9987;DHT22;5033;46.310;11.214;2024-03-25T03:44:01;4.00;99.90
9987;DHT22;5033;46.310;11.214;2024-03-25T03:46:28;3.90;99.90
9987;DHT22;5033;46.310;11.214;2024-03-25T03:48:54;3.90;99.90
9987;DHT22;5033;46.310;11.214;2024-03-25T03:51:21;3.90;99.90
9987;DHT22;5033;46.310;11.214;2024-03-25T03:53:48;3.90;99.90
9987;DHT22;5033;46.310;11.214;2024-03-25T03:56:15;4.00;99.90
9987;DHT22;5033;46.310;11.214;2024-03-25T03:58:41;4.00;99.90
9987;DHT22;5033;46.310;11.214;2024-03-25T04:01:14;4.00;99.90
9987;DHT22;5033;46.310;11.214;2024-03-25T04:03:41;4.00;99.90
9987;DHT22;5033;46.310;11.214;2024-03-25T04:06:09;3.90;99.90
9987;DHT22;5033;46.310;11.214;2024-03-25T04:08:36;3.90;99.90
9987;DHT22;5033;46.310;11.214;2024-03-25T04:11:04;3.80;99.90
9987;DHT22;5033;46.310;11.214;2024-03-25T04:13:32;3.90;99.90
9987;DHT22;5033;46.310;11.214;2024-03-25T04:16:01;3.90;99.90
9987;DHT22;5033;46.310;11.214;2024-03-25T04:18:28;3.90;99.90
9987;DHT22;5033;46.310;11.214;2024-03-25T04:20:55;3.90;99.90
9987;DHT22;5033;46.310;11.214;2024-03-25T04:23:21;3.80;99.90
9987;DHT22;5033;46.310;11.214;2024-03-25T04:25:48;3.80;99.90
9987;DHT22;5033;46.310;11.214;2024-03-25T04:28:15;3.70;99.90
9987;DHT22;5033;46.310;11.214;2024-03-25T04:30:42;3.70;99.90
9987;DHT22;5033;46.310;11.214;2024-03-25T04:33:08;3.70;99.90
9987;DHT22;5033;46.310;11.214;2024-03-25T04:35:35;3.70;99.90
9987;DHT22;5033;46.310;11.214;2024-03-25T04:38:01;3.70;99.90
9987;DHT22;5033;46.310;11.214;2024-03-25T04:40:28;3.70;99.90
9987;DHT22;5033;46.310;11.214;2024-03-25T04:42:54;3.70;99.90
9987;DHT22;5033;46.310;11.214;2024-03-25T04:45:21;3.70;99.90
9987;DHT22;5033;46.310;11.214;2024-03-25T04:47:47;3.70;99.90
9987;DHT22;5033;46.310;11.214;2024-03-25T04:50:13;3.70;99.90
9987;DHT22;5033;46.310;11.214;2024-03-25T04:52:39;3.70;99.90
9987;DHT22;5033;46.310;11.214;2024-03-25T04:55:06;3.60;99.90
9987;DHT22;5033;46.310;11.214;2024-03-25T04:57:32;3.50;99.90
9987;DHT22;5033;46.310;11.214;2024-03-25T04:59:58;3.40;99.90
9987;DHT22;5033;46.310;11.214;2024-03-25T05:02:25;3.40;99.90
9987;DHT22;5033;46.310;11.214;2024-03-25T05:04:51;3.40;99.90
9987;DHT22;5033;46.310;11.214;2024-03-25T05:07:17;3.40;99.90
9987;DHT22;5033;46.310;11.214;2024-03-25T05:09:43;3.40;99.90
9987;DHT22;5033;46.310;11.214;2024-03-25T05:12:09;3.50;99.90
9987;DHT22;5033;46.310;11.214;2024-03-25T05:14:35;3.50;99.90
9987;DHT22;5033;46.310;11.214;2024-03-25T05:17:01;3.50;99.90
9987;DHT22;5033;46.310;11.214;2024-03-25T05:19:28;3.50;99.90
9987;DHT22;5033;46.310;11.214;2024-03-25T05:21:54;3.40;99.90
9987;DHT22;5033;46.310;11.214;2024-03-25T05:24:20;3.40;99.90
9987;DHT22;5033;46.310;11.214;2024-03-25T05:26:46;3.40;99.90
9987;DHT22;5033;46.310;11.214;2024-03-25T05:29:12;3.40;99.90
9987;DHT22;5033;46.310;11.214;2024-03-25T05:31:39;3.40;99.90
9987;DHT22;5033;46.310;11.214;2024-03-25T05:34:21;3.40;99.90
9987;DHT22;5033;46.310;11.214;2024-03-25T05:36:48;3.50;99.90
9987;DHT22;5033;46.310;11.214;2024-03-25T05:39:14;3.50;99.90
9987;DHT22;5033;46.310;11.214;2024-03-25T05:41:40;3.50;99.90
9987;DHT22;5033;46.310;11.214;2024-03-25T05:44:06;3.50;99.90
9987;DHT22;5033;46.310;11.214;2024-03-25T05:46:32;3.50;99.90
9987;DHT22;5033;46.310;11.214;2024-03-25T05:49:01;3.50;99.90
9987;DHT22;5033;46.310;11.214;2024-03-25T05:51:27;3.70;99.90
9987;DHT22;5033;46.310;11.214;2024-03-25T05:53:55;4.00;99.90
9987;DHT22;5033;46.310;11.214;2024-03-25T05:56:21;4.50;99.90
9987;DHT22;5033;46.310;11.214;2024-03-25T05:58:47;5.10;99.90
9987;DHT22;5033;46.310;11.214;2024-03-25T06:01:13;5.60;99.90
9987;DHT22;5033;46.310;11.214;2024-03-25T06:03:39;6.00;99.90
9987;DHT22;5033;46.310;11.214;2024-03-25T06:06:05;6.40;99.90
9987;DHT22;5033;46.310;11.214;2024-03-25T06:08:31;6.70;99.90
9987;DHT22;5033;46.310;11.214;2024-03-25T06:11:02;7.00;99.90
9987;DHT22;5033;46.310;11.214;2024-03-25T06:13:28;7.40;99.90
9987;DHT22;5033;46.310;11.214;2024-03-25T06:15:54;7.80;99.90
9987;DHT22;5033;46.310;11.214;2024-03-25T06:18:20;8.20;99.90
9987;DHT22;5033;46.310;11.214;2024-03-25T06:20:46;8.30;99.90
9987;DHT22;5033;46.310;11.214;2024-03-25T06:23:21;8.50;99.90
9987;DHT22;5033;46.310;11.214;2024-03-25T06:25:48;8.70;99.90
9987;DHT22;5033;46.310;11.214;2024-03-25T06:28:15;8.90;99.90
9987;DHT22;5033;46.310;11.214;2024-03-25T06:30:41;9.10;99.90
9987;DHT22;5033;46.310;11.214;2024-03-25T06:33:27;9.30;99.90
9987;DHT22;5033;46.310;11.214;2024-03-25T06:36:11;9.80;99.90
9987;DHT22;5033;46.310;11.214;2024-03-25T06:38:37;10.20;99.90
9987;DHT22;5033;46.310;11.214;2024-03-25T06:41:03;10.30;99.90
9987;DHT22;5033;46.310;11.214;2024-03-25T06:43:31;10.20;99.90
9987;DHT22;5033;46.310;11.214;2024-03-25T06:45:57;10.40;99.90
9987;DHT22;5033;46.310;11.214;2024-03-25T06:48:23;10.50;99.90
9987;DHT22;5033;46.310;11.214;2024-03-25T06:50:53;10.60;99.90
9987;DHT22;5033;46.310;11.214;2024-03-25T06:53:19;10.50;99.90
9987;DHT22;5033;46.310;11.214;2024-03-25T06:55:51;10.10;99.90
9987;DHT22;5033;46.310;11.214;2024-03-25T06:58:19;9.80;99.90
9987;DHT22;5033;46.310;11.214;2024-03-25T07:00:46;10.00;99.90
9987;DHT22;5033;46.310;11.214;2024-03-25T07:03:13;10.30;99.90
9987;DHT22;5033;46.310;11.214;2024-03-25T07:05:39;10.50;99.90
9987;DHT22;5033;46.310;11.214;2024-03-25T07:08:05;10.60;99.90
9987;DHT22;5033;46.310;11.214;2024-03-25T07:10:31;10.70;99.90
9987;DHT22;5033;46.310;11.214;2024-03-25T07:12:57;10.80;99.90
9987;DHT22;5033;46.310;11.214;2024-03-25T07:15:23;10.90;99.90
9987;DHT22;5033;46.310;11.214;2024-03-25T07:17:50;11.00;99.90
9987;DHT22;5033;46.310;11.214;2024-03-25T07:20:16;11.40;99.90
9987;DHT22;5033;46.310;11.214;2024-03-25T07:22:42;11.30;99.90
9987;DHT22;5033;46.310;11.214;2024-03-25T07:25:08;10.60;99.90
9987;DHT22;5033;46.310;11.214;2024-03-25T07:27:35;10.40;99.90
9987;DHT22;5033;46.310;11.214;2024-03-25T07:30:01;10.40;99.90
9987;DHT22;5033;46.310;11.214;2024-03-25T07:32:27;10.70;99.90
9987;DHT22;5033;46.310;11.214;2024-03-25T07:34:55;11.10;99.90
9987;DHT22;5033;46.310;11.214;2024-03-25T07:37:21;11.20;99.90
9987;DHT22;5033;46.310;11.214;2024-03-25T07:39:47;11.50;99.90
9987;DHT22;5033;46.310;11.214;2024-03-25T07:42:13;11.30;99.90
9987;DHT22;5033;46.310;11.214;2024-03-25T07:44:39;11.20;99.90
9987;DHT22;5033;46.310;11.214;2024-03-25T07:47:05;11.20;99.90
9987;DHT22;5033;46.310;11.214;2024-03-25T07:49:31;11.40;99.90
9987;DHT22;5033;46.310;11.214;2024-03-25T07:51:59;11.80;99.90
9987;DHT22;5033;46.310;11.214;2024-03-25T07:54:25;12.20;99.90
9987;DHT22;5033;46.310;11.214;2024-03-25T07:56:51;12.60;99.90
9987;DHT22;5033;46.310;11.214;2024-03-25T07:59:17;12.70;99.90
9987;DHT22;5033;46.310;11.214;2024-03-25T08:01:43;12.60;99.90
9987;DHT22;5033;46.310;11.214;2024-03-25T08:04:09;12.50;99.90
9987;DHT22;5033;46.310;11.214;2024-03-25T08:06:35;12.70;99.90
9987;DHT22;5033;46.310;11.214;2024-03-25T08:09:03;12.60;99.90
9987;DHT22;5033;46.310;11.214;2024-03-25T08:11:29;12.60;99.90
9987;DHT22;5033;46.310;11.214;2024-03-25T08:13:55;12.80;99.90
9987;DHT22;5033;46.310;11.214;2024-03-25T08:16:21;12.80;99.90
9987;DHT22;5033;46.310;11.214;2024-03-25T08:18:47;13.00;99.90
9987;DHT22;5033;46.310;11.214;2024-03-25T08:21:13;12.90;99.90
9987;DHT22;5033;46.310;11.214;2024-03-25T08:23:39;12.90;99.90
9987;DHT22;5033;46.310;11.214;2024-03-25T08:26:07;12.50;99.70
9987;DHT22;5033;46.310;11.214;2024-03-25T08:28:33;12.30;99.90
9987;DHT22;5033;46.310;11.214;2024-03-25T08:30:59;12.40;99.90
9987;DHT22;5033;46.310;11.214;2024-03-25T08:33:25;12.60;99.90
9987;DHT22;5033;46.310;11.214;2024-03-25T08:35:51;12.60;99.90
9987;DHT22;5033;46.310;11.214;2024-03-25T08:38:17;12.40;99.90
9987;DHT22;5033;46.310;11.214;2024-03-25T08:40:43;12.40;99.90
9987;DHT22;5033;46.310;11.214;2024-03-25T08:43:10;12.50;99.90
9987;DHT22;5033;46.310;11.214;2024-03-25T08:45:36;12.80;99.90
9987;DHT22;5033;46.310;11.214;2024-03-25T08:48:02;12.90;99.90
9987;DHT22;5033;46.310;11.214;2024-03-25T08:50:28;12.90;99.90
9987;DHT22;5033;46.310;11.214;2024-03-25T08:52:54;12.80;99.90
9987;DHT22;5033;46.310;11.214;2024-03-25T08:55:20;13.10;99.90
9987;DHT22;5033;46.310;11.214;2024-03-25T08:57:46;13.20;99.90
9987;DHT22;5033;46.310;11.214;2024-03-25T09:00:15;13.30;99.90
9987;DHT22;5033;46.310;11.214;2024-03-25T09:02:41;13.80;99.90
9987;DHT22;5033;46.310;11.214;2024-03-25T09:05:07;13.90;99.90
9987;DHT22;5033;46.310;11.214;2024-03-25T09:07:33;13.40;97.50
9987;DHT22;5033;46.310;11.214;2024-03-25T09:09:59;13.10;98.10
9987;DHT22;5033;46.310;11.214;2024-03-25T09:12:44;12.90;97.70
9987;DHT22;5033;46.310;11.214;2024-03-25T09:15:10;12.80;98.90
9987;DHT22;5033;46.310;11.214;2024-03-25T09:17:37;13.10;98.70
9987;DHT22;5033;46.310;11.214;2024-03-25T09:20:04;13.40;98.10
9987;DHT22;5033;46.310;11.214;2024-03-25T09:22:30;13.60;96.90
9987;DHT22;5033;46.310;11.214;2024-03-25T09:24:56;13.40;96.00
9987;DHT22;5033;46.310;11.214;2024-03-25T09:27:22;13.10;95.30
9987;DHT22;5033;46.310;11.214;2024-03-25T09:29:48;13.10;96.20
9987;DHT22;5033;46.310;11.214;2024-03-25T09:32:13;13.20;96.70
9987;DHT22;5033;46.310;11.214;2024-03-25T09:34:41;13.60;97.30
9987;DHT22;5033;46.310;11.214;2024-03-25T09:37:07;13.80;96.30
9987;DHT22;5033;46.310;11.214;2024-03-25T09:39:33;13.90;96.40
9987;DHT22;5033;46.310;11.214;2024-03-25T09:42:01;13.90;96.60
9987;DHT22;5033;46.310;11.214;2024-03-25T09:44:33;14.20;97.00
9987;DHT22;5033;46.310;11.214;2024-03-25T09:47:00;14.20;94.80
9987;DHT22;5033;46.310;11.214;2024-03-25T09:49:28;14.50;95.40
9987;DHT22;5033;46.310;11.214;2024-03-25T09:51:57;14.70;95.30
9987;DHT22;5033;46.310;11.214;2024-03-25T09:54:23;15.00;94.60
9987;DHT22;5033;46.310;11.214;2024-03-25T09:56:49;15.30;94.90
9987;DHT22;5033;46.310;11.214;2024-03-25T09:59:16;15.40;94.30
9987;DHT22;5033;46.310;11.214;2024-03-25T10:01:42;15.50;94.30
9987;DHT22;5033;46.310;11.214;2024-03-25T10:04:08;15.60;92.80
9987;DHT22;5033;46.310;11.214;2024-03-25T10:06:34;15.60;92.80
9987;DHT22;5033;46.310;11.214;2024-03-25T10:09:04;15.60;93.80
9987;DHT22;5033;46.310;11.214;2024-03-25T10:11:31;15.50;91.80
9987;DHT22;5033;46.310;11.214;2024-03-25T10:13:58;15.80;92.30
9987;DHT22;5033;46.310;11.214;2024-03-25T10:16:23;15.90;93.40
9987;DHT22;5033;46.310;11.214;2024-03-25T10:18:49;15.80;92.20
9987;DHT22;5033;46.310;11.214;2024-03-25T10:21:19;15.60;92.20
9987;DHT22;5033;46.310;11.214;2024-03-25T10:23:45;15.80;93.10
9987;DHT22;5033;46.310;11.214;2024-03-25T10:26:25;15.80;91.50
9987;DHT22;5033;46.310;11.214;2024-03-25T10:28:59;15.80;91.80
9987;DHT22;5033;46.310;11.214;2024-03-25T10:31:25;15.80;91.80
9987;DHT22;5033;46.310;11.214;2024-03-25T10:33:52;16.00;92.10
9987;DHT22;5033;46.310;11.214;2024-03-25T10:36:19;16.20;91.80
9987;DHT22;5033;46.310;11.214;2024-03-25T10:38:46;16.10;90.20
9987;DHT22;5033;46.310;11.214;2024-03-25T10:41:13;16.20;90.90
9987;DHT22;5033;46.310;11.214;2024-03-25T10:43:45;16.40;90.80
9987;DHT22;5033;46.310;11.214;2024-03-25T10:46:14;16.40;88.80
9987;DHT22;5033;46.310;11.214;2024-03-25T10:48:47;16.10;85.00
9987;DHT22;5033;46.310;11.214;2024-03-25T10:51:13;15.80;86.00
9987;DHT22;5033;46.310;11.214;2024-03-25T10:53:41;15.60;85.70
9987;DHT22;5033;46.310;11.214;2024-03-25T10:56:08;15.70;86.60
9987;DHT22;5033;46.310;11.214;2024-03-25T10:58:36;15.80;87.70
9987;DHT22;5033;46.310;11.214;2024-03-25T11:01:03;15.80;80.90
9987;DHT22;5033;46.310;11.214;2024-03-25T11:03:30;15.90;86.90
9987;DHT22;5033;46.310;11.214;2024-03-25T11:05:56;16.10;84.60
9987;DHT22;5033;46.310;11.214;2024-03-25T11:08:30;16.30;85.40
9987;DHT22;5033;46.310;11.214;2024-03-25T11:10:57;16.70;88.80
9987;DHT22;5033;46.310;11.214;2024-03-25T11:13:23;16.90;88.50
9987;DHT22;5033;46.310;11.214;2024-03-25T11:15:49;17.10;84.60
9987;DHT22;5033;46.310;11.214;2024-03-25T11:18:17;16.80;83.30
9987;DHT22;5033;46.310;11.214;2024-03-25T11:20:44;16.90;82.80
9987;DHT22;5033;46.310;11.214;2024-03-25T11:23:10;16.60;81.20
9987;DHT22;5033;46.310;11.214;2024-03-25T11:25:37;16.50;82.60
9987;DHT22;5033;46.310;11.214;2024-03-25T11:28:03;16.80;85.40
9987;DHT22;5033;46.310;11.214;2024-03-25T11:30:30;16.90;84.00
9987;DHT22;5033;46.310;11.214;2024-03-25T11:32:56;17.00;84.30
9987;DHT22;5033;46.310;11.214;2024-03-25T11:35:24;16.70;81.20
9987;DHT22;5033;46.310;11.214;2024-03-25T11:37:50;16.50;81.60
9987;DHT22;5033;46.310;11.214;2024-03-25T11:40:17;16.80;82.70
9987;DHT22;5033;46.310;11.214;2024-03-25T11:42:43;17.00;82.70
9987;DHT22;5033;46.310;11.214;2024-03-25T11:45:18;17.00;78.90
9987;DHT22;5033;46.310;11.214;2024-03-25T11:47:44;16.90;79.50
9987;DHT22;5033;46.310;11.214;2024-03-25T11:50:12;17.10;83.30
9987;DHT22;5033;46.310;11.214;2024-03-25T11:52:40;17.40;84.00
9987;DHT22;5033;46.310;11.214;2024-03-25T11:55:06;17.30;79.50
9987;DHT22;5033;46.310;11.214;2024-03-25T11:57:34;17.10;78.70
9987;DHT22;5033;46.310;11.214;2024-03-25T12:00:00;17.20;79.20
9987;DHT22;5033;46.310;11.214;2024-03-25T12:02:26;17.30;78.40
9987;DHT22;5033;46.310;11.214;2024-03-25T12:04:52;17.60;77.30
9987;DHT22;5033;46.310;11.214;2024-03-25T12:07:18;17.50;75.90
9987;DHT22;5033;46.310;11.214;2024-03-25T12:09:46;17.50;78.20
9987;DHT22;5033;46.310;11.214;2024-03-25T12:12:30;17.60;76.80
9987;DHT22;5033;46.310;11.214;2024-03-25T12:14:58;17.50;75.30
9987;DHT22;5033;46.310;11.214;2024-03-25T12:17:25;17.40;75.90
9987;DHT22;5033;46.310;11.214;2024-03-25T12:20:02;17.30;75.70
9987;DHT22;5033;46.310;11.214;2024-03-25T12:22:30;17.00;75.70
9987;DHT22;5033;46.310;11.214;2024-03-25T12:24:59;17.10;77.50
9987;DHT22;5033;46.310;11.214;2024-03-25T12:27:25;17.30;75.90
9987;DHT22;5033;46.310;11.214;2024-03-25T12:30:03;17.50;76.90
9987;DHT22;5033;46.310;11.214;2024-03-25T12:32:36;18.00;79.90
9987;DHT22;5033;46.310;11.214;2024-03-25T12:35:03;18.20;71.80
9987;DHT22;5033;46.310;11.214;2024-03-25T12:37:30;17.90;70.20
9987;DHT22;5033;46.310;11.214;2024-03-25T12:39:56;17.70;72.00
9987;DHT22;5033;46.310;11.214;2024-03-25T12:42:24;17.60;72.80
9987;DHT22;5033;46.310;11.214;2024-03-25T12:44:50;17.40;70.80
9987;DHT22;5033;46.310;11.214;2024-03-25T12:47:16;17.30;71.50
9987;DHT22;5033;46.310;11.214;2024-03-25T12:49:42;17.10;69.60
9987;DHT22;5033;46.310;11.214;2024-03-25T12:52:09;17.00;68.20
9987;DHT22;5033;46.310;11.214;2024-03-25T12:54:35;17.20;69.40
9987;DHT22;5033;46.310;11.214;2024-03-25T12:57:01;17.20;67.80
9987;DHT22;5033;46.310;11.214;2024-03-25T12:59:28;17.00;60.90
9987;DHT22;5033;46.310;11.214;2024-03-25T13:01:55;16.80;62.70
9987;DHT22;5033;46.310;11.214;2024-03-25T13:04:21;16.80;62.70
9987;DHT22;5033;46.310;11.214;2024-03-25T13:06:47;16.80;60.90
9987;DHT22;5033;46.310;11.214;2024-03-25T13:09:13;17.00;61.00
9987;DHT22;5033;46.310;11.214;2024-03-25T13:11:39;17.10;63.40
9987;DHT22;5033;46.310;11.214;2024-03-25T13:14:05;17.20;60.30
9987;DHT22;5033;46.310;11.214;2024-03-25T13:16:32;17.20;59.60
9987;DHT22;5033;46.310;11.214;2024-03-25T13:18:58;17.10;60.00
9987;DHT22;5033;46.310;11.214;2024-03-25T13:21:24;17.10;62.10
9987;DHT22;5033;46.310;11.214;2024-03-25T13:23:51;17.40;60.70
9987;DHT22;5033;46.310;11.214;2024-03-25T13:26:17;17.30;59.30
9987;DHT22;5033;46.310;11.214;2024-03-25T13:28:43;17.10;57.60
9987;DHT22;5033;46.310;11.214;2024-03-25T13:31:09;17.00;58.70
9987;DHT22;5033;46.310;11.214;2024-03-25T13:33:36;17.10;58.80
9987;DHT22;5033;46.310;11.214;2024-03-25T13:36:02;17.00;57.40
9987;DHT22;5033;46.310;11.214;2024-03-25T13:38:28;16.90;57.40
9987;DHT22;5033;46.310;11.214;2024-03-25T13:40:54;16.60;57.60
9987;DHT22;5033;46.310;11.214;2024-03-25T13:43:20;16.30;58.60
9987;DHT22;5033;46.310;11.214;2024-03-25T13:45:47;16.20;56.90
9987;DHT22;5033;46.310;11.214;2024-03-25T13:48:14;16.40;58.80
9987;DHT22;5033;46.310;11.214;2024-03-25T13:50:44;16.70;61.10
9987;DHT22;5033;46.310;11.214;2024-03-25T13:53:10;17.00;58.20
9987;DHT22;5033;46.310;11.214;2024-03-25T13:55:36;16.80;56.90
9987;DHT22;5033;46.310;11.214;2024-03-25T13:58:02;17.00;56.90
9987;DHT22;5033;46.310;11.214;2024-03-25T14:00:28;16.90;56.30
9987;DHT22;5033;46.310;11.214;2024-03-25T14:02:54;16.70;53.90
9987;DHT22;5033;46.310;11.214;2024-03-25T14:05:20;16.60;53.40
9987;DHT22;5033;46.310;11.214;2024-03-25T14:07:48;16.50;54.40
9987;DHT22;5033;46.310;11.214;2024-03-25T14:10:14;16.50;55.70
9987;DHT22;5033;46.310;11.214;2024-03-25T14:12:40;16.30;53.40
9987;DHT22;5033;46.310;11.214;2024-03-25T14:15:06;16.20;53.00
9987;DHT22;5033;46.310;11.214;2024-03-25T14:17:33;16.40;53.70
9987;DHT22;5033;46.310;11.214;2024-03-25T14:19:59;16.30;53.70
9987;DHT22;5033;46.310;11.214;2024-03-25T14:22:25;16.40;54.60
9987;DHT22;5033;46.310;11.214;2024-03-25T14:24:52;16.40;54.30
9987;DHT22;5033;46.310;11.214;2024-03-25T14:27:19;16.20;54.10
9987;DHT22;5033;46.310;11.214;2024-03-25T14:29:45;16.30;55.30
9987;DHT22;5033;46.310;11.214;2024-03-25T14:32:11;16.30;54.80
9987;DHT22;5033;46.310;11.214;2024-03-25T14:34:37;16.30;54.90
9987;DHT22;5033;46.310;11.214;2024-03-25T14:37:03;16.50;55.20
9987;DHT22;5033;46.310;11.214;2024-03-25T14:39:29;16.60;55.40
9987;DHT22;5033;46.310;11.214;2024-03-25T14:41:57;16.40;54.50
9987;DHT22;5033;46.310;11.214;2024-03-25T14:44:23;16.20;53.70
9987;DHT22;5033;46.310;11.214;2024-03-25T14:46:49;16.10;54.20
9987;DHT22;5033;46.310;11.214;2024-03-25T14:49:15;16.00;54.10
9987;DHT22;5033;46.310;11.214;2024-03-25T14:51:41;15.90;53.40
9987;DHT22;5033;46.310;11.214;2024-03-25T14:54:07;15.90;54.50
9987;DHT22;5033;46.310;11.214;2024-03-25T14:56:33;15.90;54.50
9987;DHT22;5033;46.310;11.214;2024-03-25T14:59:00;15.80;54.30
9987;DHT22;5033;46.310;11.214;2024-03-25T15:01:26;15.70;54.50
9987;DHT22;5033;46.310;11.214;2024-03-25T15:03:52;15.60;54.60
9987;DHT22;5033;46.310;11.214;2024-03-25T15:06:18;15.60;55.60
9987;DHT22;5033;46.310;11.214;2024-03-25T15:08:44;15.40;53.80
9987;DHT22;5033;46.310;11.214;2024-03-25T15:11:10;15.30;54.90
9987;DHT22;5033;46.310;11.214;2024-03-25T15:13:36;15.30;55.50
9987;DHT22;5033;46.310;11.214;2024-03-25T15:16:05;15.30;54.60
9987;DHT22;5033;46.310;11.214;2024-03-25T15:18:31;15.30;55.40
9987;DHT22;5033;46.310;11.214;2024-03-25T15:21:01;15.40;56.10
9987;DHT22;5033;46.310;11.214;2024-03-25T15:23:27;15.40;55.40
9987;DHT22;5033;46.310;11.214;2024-03-25T15:25:53;15.40;56.50
9987;DHT22;5033;46.310;11.214;2024-03-25T15:28:19;15.30;56.70
9987;DHT22;5033;46.310;11.214;2024-03-25T15:30:46;15.10;57.10
9987;DHT22;5033;46.310;11.214;2024-03-25T15:33:13;14.90;57.50
9987;DHT22;5033;46.310;11.214;2024-03-25T15:35:39;14.60;57.90
9987;DHT22;5033;46.310;11.214;2024-03-25T15:38:05;14.40;58.20
9987;DHT22;5033;46.310;11.214;2024-03-25T15:40:31;14.20;58.80
9987;DHT22;5033;46.310;11.214;2024-03-25T15:42:57;14.10;59.40
9987;DHT22;5033;46.310;11.214;2024-03-25T15:45:23;14.10;59.60
9987;DHT22;5033;46.310;11.214;2024-03-25T15:47:50;14.00;59.90
9987;DHT22;5033;46.310;11.214;2024-03-25T15:50:17;14.00;59.90